Time;durP1;ratioP1;P1;durP2;ratioP2;P2;SDS_P1;SDS_P2;PMS_P1;PMS_P2;Temp;Humidity;BMP_temperature;BMP_pressure;BME280_temperature;BME280_humidity;BME280_pressure;Samples;Min_cycle;Max_cycle;Signal;HPM_P1;HPM_P2
2021/12/29 00:00:13;;;;;;;14.70;2.83;;;13.70;1.00;;;;;;5013267;28;20236;-72
2021/12/29 00:02:40;;;;;;;10.20;2.13;;;13.80;1.00;;;;;;5013088;28;20298;-72
2021/12/29 00:05:08;;;;;;;12.30;3.35;;;13.80;1.00;;;;;;5013137;28;20734;-73
2021/12/29 00:07:35;;;;;;;9.90;2.05;;;13.80;1.00;;;;;;5012514;28;20255;-72
2021/12/29 00:10:04;;;;;;;14.13;2.60;;;13.90;1.00;;;;;;5012995;28;20203;-72
2021/12/29 00:12:39;;;;;;;6.90;2.70;;;13.90;1.00;;;;;;5012593;28;20213;-72
2021/12/29 00:15:06;;;;;;;7.43;1.58;;;14.00;1.00;;;;;;5012725;28;20218;-73
2021/12/29 00:17:33;;;;;;;7.47;1.80;;;14.00;1.00;;;;;;5012614;28;20667;-71
2021/12/29 00:20:00;;;;;;;8.82;2.80;;;14.00;1.00;;;;;;5012836;28;20282;-72
2021/12/29 00:22:27;;;;;;;14.05;4.25;;;14.00;1.00;;;;;;5012293;28;20208;-71
2021/12/29 00:24:54;;;;;;;7.25;3.00;;;14.00;1.00;;;;;;5013057;28;20204;-71
2021/12/29 00:27:23;;;;;;;9.98;2.67;;;13.90;1.00;;;;;;5012502;28;20262;-71
2021/12/29 00:29:50;;;;;;;6.22;1.88;;;13.90;1.00;;;;;;5012843;28;20211;-71
2021/12/29 00:32:17;;;;;;;8.20;2.65;;;13.80;1.00;;;;;;5013092;28;20212;-71
2021/12/29 00:34:44;;;;;;;11.50;2.83;;;13.80;1.00;;;;;;5012876;28;20204;-72
2021/12/29 00:37:11;;;;;;;16.48;2.58;;;13.70;1.00;;;;;;5012784;28;20200;-72
2021/12/29 00:39:38;;;;;;;11.43;3.90;;;13.80;1.00;;;;;;5012183;28;20305;-73
2021/12/29 00:42:06;;;;;;;8.85;2.30;;;13.80;1.00;;;;;;5012333;28;20228;-73
2021/12/29 00:44:35;;;;;;;7.85;2.25;;;13.70;1.00;;;;;;5011781;28;20672;-72
2021/12/29 00:47:02;;;;;;;7.22;2.20;;;13.80;1.00;;;;;;5012367;28;20667;-72
2021/12/29 00:49:33;;;;;;;10.75;2.47;;;13.80;1.00;;;;;;5011815;28;20243;-71
2021/12/29 00:52:00;;;;;;;9.60;2.22;;;13.90;1.00;;;;;;5012178;28;20286;-71
2021/12/29 00:54:28;;;;;;;6.68;3.35;;;13.90;1.00;;;;;;5012193;28;20639;-72
2021/12/29 00:56:55;;;;;;;9.77;2.13;;;14.00;1.00;;;;;;5011961;28;20208;-71
2021/12/29 00:59:23;;;;;;;8.45;2.65;;;14.00;1.00;;;;;;5011948;28;20228;-72
2021/12/29 01:01:53;;;;;;;6.85;2.20;;;14.00;1.00;;;;;;5012201;28;20230;-71
2021/12/29 01:04:21;;;;;;;11.68;2.92;;;14.00;1.00;;;;;;5011459;28;20204;-71
2021/12/29 01:06:48;;;;;;;9.90;2.30;;;14.00;1.00;;;;;;5012007;28;20671;-71
2021/12/29 01:09:15;;;;;;;8.30;2.30;;;14.00;1.00;;;;;;5012221;28;20214;-71
2021/12/29 01:11:43;;;;;;;9.85;3.13;;;14.00;1.00;;;;;;5012409;28;20587;-72
2021/12/29 01:14:10;;;;;;;6.20;1.83;;;14.10;1.00;;;;;;5011890;28;20208;-71
2021/12/29 01:16:37;;;;;;;8.48;4.10;;;14.00;1.00;;;;;;5011510;28;20212;-71
2021/12/29 01:19:10;;;;;;;5.75;2.35;;;14.00;1.00;;;;;;5011853;28;20629;-71
2021/12/29 01:21:39;;;;;;;7.35;2.95;;;14.00;1.00;;;;;;5011719;28;20275;-71
2021/12/29 01:24:07;;;;;;;12.98;2.30;;;14.00;1.00;;;;;;5011948;28;20208;-71
2021/12/29 01:26:34;;;;;;;7.22;1.75;;;14.00;1.00;;;;;;5011548;28;20204;-71
2021/12/29 01:29:01;;;;;;;9.80;2.17;;;14.00;1.00;;;;;;5011683;28;20753;-71
2021/12/29 01:31:28;;;;;;;12.00;2.90;;;14.00;1.00;;;;;;5011175;28;20204;-71
2021/12/29 01:33:56;;;;;;;4.57;2.10;;;14.00;1.00;;;;;;5011334;28;20258;-71
2021/12/29 01:36:25;;;;;;;12.45;3.00;;;14.00;1.00;;;;;;5011428;28;20211;-71
2021/12/29 01:38:52;;;;;;;6.85;2.13;;;14.10;1.00;;;;;;5011417;28;20255;-72
2021/12/29 01:41:19;;;;;;;10.57;3.58;;;14.00;1.00;;;;;;5010912;28;20298;-71
2021/12/29 01:43:46;;;;;;;7.90;2.00;;;13.90;1.00;;;;;;5011241;28;20270;-71
2021/12/29 01:46:13;;;;;;;10.77;2.28;;;13.90;1.00;;;;;;5012016;28;20208;-71
2021/12/29 01:48:40;;;;;;;13.73;2.10;;;13.90;1.00;;;;;;5010992;28;20629;-71
2021/12/29 01:51:07;;;;;;;8.70;2.88;;;13.90;1.00;;;;;;5011383;28;20216;-72
2021/12/29 01:53:45;;;;;;;6.68;2.47;;;13.90;1.00;;;;;;5011087;28;20254;-72
2021/12/29 01:56:13;;;;;;;9.00;2.08;;;13.90;1.00;;;;;;5011549;28;20738;-72
2021/12/29 01:58:40;;;;;;;6.57;2.38;;;13.80;1.00;;;;;;5011164;28;20254;-72
2021/12/29 02:01:07;;;;;;;7.88;1.73;;;13.90;1.00;;;;;;5011417;28;20286;-73
2021/12/29 02:03:34;;;;;;;11.63;2.20;;;13.80;1.00;;;;;;5010770;28;20204;-72
2021/12/29 02:06:01;;;;;;;8.10;2.30;;;13.90;1.00;;;;;;5011049;28;20622;-72
2021/12/29 02:08:28;;;;;;;6.15;2.38;;;14.00;1.00;;;;;;5010093;28;20727;-72
2021/12/29 02:10:59;;;;;;;11.18;2.45;;;14.00;1.00;;;;;;5011001;28;20212;-72
2021/12/29 02:13:28;;;;;;;10.32;4.57;;;14.00;1.00;;;;;;5010830;28;20208;-72
2021/12/29 02:15:55;;;;;;;9.68;2.65;;;14.10;1.00;;;;;;5011215;28;20586;-72
2021/12/29 02:18:25;;;;;;;4.90;2.30;;;14.10;1.00;;;;;;5010701;28;20274;-71
2021/12/29 02:20:55;;;;;;;6.15;1.85;;;14.20;1.00;;;;;;5011012;28;20247;-72
2021/12/29 02:23:29;;;;;;;5.07;1.48;;;14.30;1.00;;;;;;5010507;28;20726;-72
2021/12/29 02:25:58;;;;;;;9.98;2.22;;;14.40;1.00;;;;;;5011135;28;20203;-72
2021/12/29 02:28:29;;;;;;;6.68;2.38;;;14.40;1.00;;;;;;5010452;28;20258;-71
2021/12/29 02:30:58;;;;;;;8.60;1.83;;;14.40;1.00;;;;;;5010943;28;20254;-72
2021/12/29 02:33:25;;;;;;;6.35;1.73;;;14.40;1.00;;;;;;5010657;28;20200;-71
2021/12/29 02:35:54;;;;;;;5.07;2.83;;;14.40;1.00;;;;;;5011010;28;20267;-72
2021/12/29 02:38:24;;;;;;;6.13;1.65;;;14.40;1.00;;;;;;5010589;28;20672;-72
2021/12/29 02:40:54;;;;;;;2.55;1.70;;;14.40;1.00;;;;;;5010795;28;20687;-72
2021/12/29 02:43:22;;;;;;;7.22;1.80;;;14.40;1.00;;;;;;5010487;28;20211;-73
2021/12/29 02:45:53;;;;;;;7.88;1.80;;;14.40;1.00;;;;;;5010803;28;20210;-72
2021/12/29 02:48:23;;;;;;;7.68;2.42;;;14.40;1.00;;;;;;5010575;28;20208;-73
2021/12/29 02:50:54;;;;;;;5.28;1.45;;;14.40;1.00;;;;;;5010641;28;20652;-72
2021/12/29 02:53:23;;;;;;;5.93;1.80;;;14.40;1.00;;;;;;5010299;28;20211;-72
2021/12/29 02:55:50;;;;;;;6.30;1.80;;;14.50;1.00;;;;;;5010811;28;20254;-71
2021/12/29 02:58:17;;;;;;;9.65;1.90;;;14.50;1.00;;;;;;5010549;28;20212;-71
2021/12/29 03:00:44;;;;;;;6.90;1.75;;;14.50;1.00;;;;;;5010826;28;20293;-71
2021/12/29 03:03:16;;;;;;;8.93;1.73;;;14.50;1.00;;;;;;5011108;28;20204;-71
2021/12/29 03:05:43;;;;;;;6.10;1.88;;;14.50;1.00;;;;;;5011186;28;20585;-71
2021/12/29 03:08:11;;;;;;;10.13;2.00;;;14.50;1.00;;;;;;5011236;28;20230;-71
2021/12/29 03:10:40;;;;;;;7.75;1.55;;;14.60;1.00;;;;;;5010300;28;20291;-71
2021/12/29 03:13:08;;;;;;;9.30;2.55;;;14.60;1.00;;;;;;5010589;28;20290;-71
2021/12/29 03:15:36;;;;;;;3.75;1.90;;;14.60;1.00;;;;;;5009875;28;20254;-71
2021/12/29 03:18:04;;;;;;;4.65;1.60;;;14.60;1.00;;;;;;5010552;28;20204;-71
2021/12/29 03:20:31;;;;;;;3.83;1.70;;;14.60;1.00;;;;;;5012671;28;20228;-72
2021/12/29 03:22:58;;;;;;;4.80;1.23;;;14.60;1.00;;;;;;5013960;28;20209;-72
2021/12/29 03:25:26;;;;;;;3.30;1.30;;;14.60;1.00;;;;;;5013657;28;20259;-72
2021/12/29 03:27:58;;;;;;;6.25;1.73;;;14.60;1.00;;;;;;5013720;28;20204;-72
2021/12/29 03:30:27;;;;;;;7.03;1.52;;;14.60;1.00;;;;;;5013424;28;20221;-72
2021/12/29 03:33:03;;;;;;;6.72;1.30;;;14.60;1.00;;;;;;5013771;28;20769;-72
2021/12/29 03:35:31;;;;;;;7.35;2.80;;;14.50;1.00;;;;;;5013381;28;20208;-72
2021/12/29 03:37:58;;;;;;;8.63;1.77;;;14.40;1.00;;;;;;5013866;28;20212;-71
2021/12/29 03:40:25;;;;;;;3.88;1.30;;;14.40;1.00;;;;;;5013155;28;20223;-72
2021/12/29 03:42:54;;;;;;;6.85;1.50;;;14.30;1.00;;;;;;5013650;28;20212;-72
2021/12/29 03:45:22;;;;;;;3.45;1.27;;;14.20;1.00;;;;;;5013331;28;20216;-72
2021/12/29 03:47:49;;;;;;;5.50;1.33;;;14.20;1.00;;;;;;5013669;28;20205;-71
2021/12/29 03:50:16;;;;;;;7.43;2.70;;;14.10;1.00;;;;;;5013529;28;20262;-72
2021/12/29 03:52:43;;;;;;;4.97;1.23;;;14.10;1.00;;;;;;5013808;28;20212;-72
2021/12/29 03:55:10;;;;;;;7.43;2.45;;;14.00;1.00;;;;;;5013389;28;20579;-72
2021/12/29 03:57:38;;;;;;;6.55;2.53;;;14.00;1.00;;;;;;5012982;28;20243;-72
2021/12/29 04:00:11;;;;;;;4.07;1.35;;;14.00;1.00;;;;;;5013070;28;20212;-71
2021/12/29 04:02:38;;;;;;;5.95;2.53;;;14.00;1.00;;;;;;5012886;28;20216;-71
2021/12/29 04:05:06;;;;;;;7.38;1.30;;;14.00;1.00;;;;;;5013176;28;20805;-71
2021/12/29 04:07:34;;;;;;;4.95;1.23;;;14.00;1.00;;;;;;5012798;28;20231;-72
2021/12/29 04:10:01;;;;;;;6.15;1.10;;;13.90;1.00;;;;;;5013335;28;20204;-71
2021/12/29 04:12:28;;;;;;;6.38;2.13;;;14.00;1.00;;;;;;5012670;28;20204;-71
2021/12/29 04:14:55;;;;;;;2.80;0.82;;;14.00;1.00;;;;;;5012974;28;20212;-71
2021/12/29 04:17:29;;;;;;;9.05;1.17;;;14.00;1.00;;;;;;5012732;28;20278;-71
2021/12/29 04:22:41;;;;;;;8.40;1.52;;;14.00;1.00;;;;;;5012824;28;20215;-74
2021/12/29 04:25:09;;;;;;;5.78;1.20;;;14.00;1.00;;;;;;5013120;28;20201;-74
2021/12/29 04:27:36;;;;;;;3.50;1.42;;;14.00;1.00;;;;;;5012169;28;20204;-74
2021/12/29 04:30:03;;;;;;;6.28;1.67;;;14.00;1.00;;;;;;5012738;28;20702;-73
2021/12/29 04:32:32;;;;;;;3.95;1.33;;;14.00;1.00;;;;;;5011573;28;20267;-73
2021/12/29 04:34:59;;;;;;;2.85;0.85;;;14.00;1.00;;;;;;5012882;28;20258;-74
2021/12/29 04:37:26;;;;;;;7.88;1.63;;;14.00;1.00;;;;;;5012494;28;20258;-73
2021/12/29 04:39:53;;;;;;;5.70;0.93;;;14.00;1.00;;;;;;5012730;28;20208;-73
2021/12/29 04:42:20;;;;;;;2.85;1.08;;;14.00;1.00;;;;;;5012079;28;20240;-74
2021/12/29 04:44:47;;;;;;;5.97;1.42;;;14.00;1.00;;;;;;5012562;28;20250;-74
2021/12/29 04:47:14;;;;;;;6.35;1.20;;;14.00;1.00;;;;;;5012688;28;20200;-71
2021/12/29 04:49:43;;;;;;;4.25;1.48;;;13.90;1.00;;;;;;5012522;28;20201;-71
2021/12/29 04:52:13;;;;;;;2.28;1.13;;;13.90;1.00;;;;;;5012369;28;20220;-72
2021/12/29 04:54:40;;;;;;;6.95;1.00;;;13.90;1.00;;;;;;5012163;28;20208;-73
2021/12/29 04:57:08;;;;;;;4.00;1.27;;;14.00;1.00;;;;;;5012131;28;20208;-71
2021/12/29 04:59:35;;;;;;;3.20;0.90;;;14.00;1.00;;;;;;5011973;28;20688;-71
2021/12/29 05:02:02;;;;;;;6.05;1.55;;;13.90;1.00;;;;;;5012027;28;20294;-71
2021/12/29 05:04:33;;;;;;;4.47;1.23;;;13.90;1.00;;;;;;5011548;28;20295;-71
2021/12/29 05:09:49;;;;;;;2.92;0.90;;;13.90;1.00;;;;;;4986810;28;20209;-71
2021/12/29 05:12:16;;;;;;;3.20;1.52;;;13.90;1.00;;;;;;5011829;28;20216;-70
2021/12/29 05:14:43;;;;;;;2.53;0.85;;;13.90;1.00;;;;;;5012404;28;20204;-71
2021/12/29 05:17:10;;;;;;;3.88;1.00;;;13.90;1.00;;;;;;5012442;28;20215;-71
2021/12/29 05:19:37;;;;;;;1.92;1.15;;;13.90;1.00;;;;;;5011454;28;20722;-71
2021/12/29 05:22:06;;;;;;;4.85;1.67;;;13.90;1.00;;;;;;5011906;28;20654;-71
2021/12/29 05:24:33;;;;;;;5.13;1.95;;;14.00;1.00;;;;;;5011407;28;20258;-71
2021/12/29 05:27:01;;;;;;;2.10;1.20;;;14.00;1.00;;;;;;5011575;28;20620;-71
2021/12/29 05:29:29;;;;;;;3.53;1.10;;;14.00;1.00;;;;;;5011640;28;20255;-71
2021/12/29 05:31:56;;;;;;;3.20;2.28;;;14.00;1.00;;;;;;5011943;28;20204;-71
2021/12/29 05:34:23;;;;;;;4.78;2.47;;;14.00;1.00;;;;;;5011487;28;20260;-71
2021/12/29 05:36:50;;;;;;;5.22;1.55;;;13.90;1.00;;;;;;5011606;28;20208;-71
2021/12/29 05:39:18;;;;;;;5.95;5.38;;;13.90;1.00;;;;;;5011154;28;20262;-72
2021/12/29 05:41:45;;;;;;;5.47;3.20;;;13.90;1.00;;;;;;5011322;28;20647;-71
2021/12/29 05:44:12;;;;;;;4.35;3.28;;;13.90;1.00;;;;;;5011865;28;20204;-71
2021/12/29 05:46:40;;;;;;;5.80;2.45;;;13.90;1.00;;;;;;5011159;28;20262;-71
2021/12/29 05:49:07;;;;;;;2.97;1.73;;;13.90;1.00;;;;;;5011525;28;20211;-72
2021/12/29 05:51:34;;;;;;;5.78;1.75;;;13.90;1.00;;;;;;5010790;28;20262;-71
2021/12/29 05:54:01;;;;;;;4.65;1.50;;;13.90;1.00;;;;;;5011161;28;20213;-71
2021/12/29 05:56:30;;;;;;;6.43;1.38;;;14.00;1.00;;;;;;5010614;28;20668;-72
2021/12/29 05:59:01;;;;;;;4.93;1.45;;;14.00;1.00;;;;;;5011284;28;20200;-72
2021/12/29 06:01:28;;;;;;;8.00;2.00;;;14.00;1.00;;;;;;5010383;28;20695;-71
2021/12/29 06:03:55;;;;;;;5.68;2.38;;;13.90;1.00;;;;;;5011200;28;20553;-72
2021/12/29 06:06:22;;;;;;;3.83;2.67;;;13.90;1.00;;;;;;5010726;28;20200;-72
2021/12/29 06:08:49;;;;;;;2.65;1.15;;;13.80;1.00;;;;;;5010910;28;20208;-72
2021/12/29 06:11:16;;;;;;;6.07;1.42;;;13.70;1.00;;;;;;5011271;28;20208;-72
2021/12/29 06:13:45;;;;;;;4.22;1.55;;;13.60;1.00;;;;;;5011479;28;20262;-72
2021/12/29 06:16:12;;;;;;;5.93;4.63;;;13.60;1.00;;;;;;5011444;28;20212;-72
2021/12/29 06:18:39;;;;;;;4.45;3.20;;;13.50;1.00;;;;;;5010691;28;20205;-72
2021/12/29 06:21:06;;;;;;;3.15;1.75;;;13.40;1.00;;;;;;5010892;28;20244;-72
2021/12/29 06:23:33;;;;;;;6.82;2.38;;;13.30;1.00;;;;;;5010721;28;20250;-72
2021/12/29 06:26:00;;;;;;;4.00;2.13;;;13.20;1.00;;;;;;5011236;28;20208;-71
2021/12/29 06:28:27;;;;;;;3.40;2.15;;;13.20;1.00;;;;;;5010549;28;20246;-71
2021/12/29 06:30:55;;;;;;;5.35;2.13;;;13.20;1.00;;;;;;5011004;28;20254;-71
2021/12/29 06:33:22;;;;;;;3.50;1.38;;;13.20;1.00;;;;;;5010319;28;20204;-72
2021/12/29 06:35:49;;;;;;;6.05;1.25;;;13.10;1.00;;;;;;5010872;28;20551;-71
2021/12/29 06:38:16;;;;;;;1.83;0.98;;;13.10;1.00;;;;;;5010704;28;20671;-71
2021/12/29 06:40:43;;;;;;;5.28;2.75;;;13.00;1.00;;;;;;5011342;28;20251;-72
2021/12/29 06:43:10;;;;;;;10.13;2.05;;;12.90;1.00;;;;;;5010864;28;20302;-72
2021/12/29 06:45:37;;;;;;;4.28;0.95;;;12.00;1.00;;;;;;5010572;28;20285;-72
2021/12/29 06:48:06;;;;;;;8.70;1.42;;;14.10;1.00;;;;;;5010688;28;20699;-74
2021/12/29 06:50:33;;;;;;;4.00;1.35;;;13.50;1.00;;;;;;5010457;28;20208;-76
2021/12/29 06:53:00;;;;;;;1.85;0.93;;;13.60;1.00;;;;;;5010837;28;20205;-72
2021/12/29 06:55:27;;;;;;;3.92;1.02;;;13.10;1.00;;;;;;5013051;28;20266;-74
2021/12/29 06:57:54;;;;;;;1.27;1.00;;;13.10;1.00;;;;;;5014475;28;20263;-75
2021/12/29 07:00:21;;;;;;;3.38;0.80;;;13.10;1.00;;;;;;5014156;28;20258;-74
2021/12/29 07:02:48;;;;;;;2.70;1.20;;;13.00;1.00;;;;;;5014436;28;20232;-72
2021/12/29 07:05:17;;;;;;;6.68;1.63;;;13.00;1.00;;;;;;5014822;28;20204;-74
2021/12/29 07:07:46;;;;;;;2.25;0.73;;;12.90;1.00;;;;;;5014555;28;20251;-76
2021/12/29 07:10:13;;;;;;;3.88;0.93;;;12.90;1.00;;;;;;5014586;28;20204;-70
2021/12/29 07:12:40;;;;;;;3.97;1.05;;;12.90;1.00;;;;;;5014160;28;20218;-72
2021/12/29 07:15:08;;;;;;;4.13;1.67;;;12.80;1.00;;;;;;5013900;28;20208;-71
2021/12/29 07:17:35;;;;;;;6.50;1.55;;;12.80;1.00;;;;;;5013736;28;21056;-71
2021/12/29 07:20:02;;;;;;;4.45;2.17;;;12.80;1.00;;;;;;5014240;28;20623;-72
2021/12/29 07:22:31;;;;;;;6.50;2.38;;;12.80;1.00;;;;;;5013369;28;20711;-70
2021/12/29 07:24:58;;;;;;;1.17;0.90;;;12.90;1.00;;;;;;5014095;28;20208;-71
2021/12/29 07:27:25;;;;;;;6.30;2.30;;;13.00;1.00;;;;;;5013416;28;20250;-71
2021/12/29 07:29:52;;;;;;;5.93;1.52;;;13.10;1.00;;;;;;5013907;28;20235;-71
2021/12/29 07:32:19;;;;;;;1.67;1.05;;;13.00;1.00;;;;;;5013747;28;20200;-70
2021/12/29 07:34:46;;;;;;;4.22;2.00;;;13.00;1.00;;;;;;5013965;28;20633;-71
2021/12/29 07:37:14;;;;;;;9.88;1.70;;;13.10;1.00;;;;;;5013975;28;20262;-71
2021/12/29 07:39:43;;;;;;;7.03;1.40;;;13.30;1.00;;;;;;5013592;28;20250;-74
2021/12/29 07:42:10;;;;;;;6.13;1.35;;;13.30;1.00;;;;;;5013444;28;20614;-74
2021/12/29 07:44:39;;;;;;;5.05;0.88;;;13.50;1.00;;;;;;5013174;28;20720;-73
2021/12/29 07:47:06;;;;;;;5.10;0.70;;;13.60;1.00;;;;;;5013835;28;20219;-73
2021/12/29 07:49:33;;;;;;;1.65;0.93;;;13.80;1.00;;;;;;5013289;28;20208;-70
2021/12/29 07:52:00;;;;;;;0.75;0.45;;;14.00;1.00;;;;;;5013367;28;20208;-71
2021/12/29 07:54:27;;;;;;;0.43;0.30;;;14.20;1.00;;;;;;5011145;28;20205;-70
2021/12/29 07:56:56;;;;;;;1.63;0.85;;;14.40;1.00;;;;;;5018417;28;20257;-71
2021/12/29 07:59:23;;;;;;;2.85;0.98;;;14.50;1.00;;;;;;5030014;28;20215;-70
2021/12/29 08:01:50;;;;;;;2.05;0.50;;;14.40;1.00;;;;;;5029288;28;20254;-70
2021/12/29 08:04:19;;;;;;;3.17;0.88;;;14.50;1.00;;;;;;5032344;28;20207;-71
2021/12/29 08:06:47;;;;;;;2.47;0.80;;;14.50;1.00;;;;;;5031362;28;20209;-70
2021/12/29 08:09:14;;;;;;;1.70;0.65;;;14.50;1.00;;;;;;5027923;28;20223;-70
2021/12/29 08:11:42;;;;;;;1.65;0.73;;;14.60;1.00;;;;;;5021098;28;20208;-70
2021/12/29 08:14:11;;;;;;;2.10;0.80;;;14.70;1.00;;;;;;5026109;28;20682;-70
2021/12/29 08:16:38;;;;;;;0.65;0.47;;;14.70;1.00;;;;;;5013961;28;20207;-71
2021/12/29 08:19:06;;;;;;;2.28;0.68;;;14.80;1.00;;;;;;5032224;28;20601;-71
2021/12/29 08:21:33;;;;;;;4.75;1.55;;;14.80;1.00;;;;;;5031752;28;20231;-72
2021/12/29 08:24:00;;;;;;;2.55;1.02;;;14.90;1.00;;;;;;5023816;28;20216;-71
2021/12/29 08:26:27;;;;;;;7.65;1.98;;;14.90;1.00;;;;;;5012416;28;20209;-71
2021/12/29 08:28:57;;;;;;;2.58;0.82;;;14.90;1.00;;;;;;5012780;28;20208;-70
2021/12/29 08:31:25;;;;;;;5.07;2.40;;;15.00;1.00;;;;;;5012522;28;20200;-71
2021/12/29 08:33:53;;;;;;;1.58;1.00;;;15.10;1.00;;;;;;5012550;28;20208;-71
2021/12/29 08:36:20;;;;;;;3.63;0.68;;;15.30;1.00;;;;;;5007380;28;20266;-71
2021/12/29 08:38:47;;;;;;;2.55;0.98;;;15.30;1.00;;;;;;5016480;28;20208;-71
2021/12/29 08:41:14;;;;;;;3.08;0.80;;;15.40;1.00;;;;;;5024645;28;20267;-71
2021/12/29 08:43:42;;;;;;;1.77;0.60;;;15.60;1.00;;;;;;5010946;28;20259;-73
2021/12/29 08:46:08;;;;;;;2.42;0.63;;;15.70;1.00;;;;;;5014617;28;20266;-74
2021/12/29 08:48:39;;;;;;;3.30;1.25;;;15.80;1.00;;;;;;5011262;28;20733;-74
2021/12/29 08:51:06;;;;;;;1.75;0.50;;;15.90;1.00;;;;;;5025626;28;20254;-75
2021/12/29 08:53:33;;;;;;;1.42;0.63;;;15.90;1.00;;;;;;5031617;28;20208;-74
2021/12/29 08:56:00;;;;;;;1.65;0.80;;;15.90;1.00;;;;;;5032134;28;20208;-75
2021/12/29 08:58:28;;;;;;;0.90;0.80;;;15.90;1.00;;;;;;5029370;28;20258;-71
2021/12/29 09:00:56;;;;;;;1.38;0.60;;;16.00;1.00;;;;;;5012026;28;20738;-70
2021/12/29 09:03:23;;;;;;;1.27;0.60;;;16.20;1.00;;;;;;5011276;28;20240;-70
2021/12/29 09:05:52;;;;;;;2.20;0.65;;;;;;;;;;5012296;28;20204;-72
2021/12/29 09:08:19;;;;;;;1.50;0.85;;;;;;;;;;5011740;28;20676;-72
2021/12/29 09:10:46;;;;;;;1.73;0.70;;;16.50;1.00;;;;;;5015519;28;20203;-71
2021/12/29 09:13:15;;;;;;;2.65;1.77;;;16.50;1.00;;;;;;5030945;28;20269;-71
2021/12/29 09:15:43;;;;;;;3.13;0.65;;;16.70;1.00;;;;;;5027996;28;20203;-69
2021/12/29 09:18:10;;;;;;;2.75;0.70;;;16.70;1.00;;;;;;5023005;28;20278;-73
2021/12/29 09:20:44;;;;;;;1.55;0.70;;;16.70;1.00;;;;;;5027611;28;20277;-73
2021/12/29 09:23:14;;;;;;;2.70;1.10;;;16.50;1.00;;;;;;5029700;28;20235;-72
2021/12/29 09:25:44;;;;;;;1.73;1.15;;;16.30;1.00;;;;;;5025747;28;20293;-71
2021/12/29 09:28:14;;;;;;;1.10;0.70;;;16.30;1.00;;;;;;5030368;28;20206;-82
2021/12/29 09:30:44;;;;;;;2.65;0.90;;;16.30;1.00;;;;;;5012059;28;20209;-74
2021/12/29 09:33:12;;;;;;;2.78;0.63;;;16.30;1.00;;;;;;5011458;28;20312;-74
2021/12/29 09:35:40;;;;;;;4.00;0.75;;;16.40;1.00;;;;;;5016069;28;20251;-71
2021/12/29 09:38:08;;;;;;;2.58;1.35;;;16.60;1.00;;;;;;5009928;28;20216;-71
2021/12/29 09:40:37;;;;;;;1.40;0.57;;;16.80;1.00;;;;;;5014322;28;20664;-72
2021/12/29 09:43:06;;;;;;;5.82;1.17;;;16.90;1.00;;;;;;5010664;28;20244;-72
2021/12/29 09:45:33;;;;;;;2.22;0.80;;;17.30;99.90;;;;;;5010628;28;20240;-72
2021/12/29 09:48:01;;;;;;;4.80;1.95;;;17.40;99.90;;;;;;5010934;28;20212;-71
2021/12/29 09:50:29;;;;;;;1.30;0.82;;;17.40;99.90;;;;;;5010920;28;20215;-71
2021/12/29 09:52:57;;;;;;;2.35;0.85;;;17.40;1.00;;;;;;5011387;28;20270;-70
2021/12/29 09:55:25;;;;;;;4.20;0.85;;;17.00;99.90;;;;;;5010745;28;20208;-70
2021/12/29 09:57:57;;;;;;;1.52;0.60;;;17.10;1.00;;;;;;5011320;28;20208;-71
2021/12/29 10:00:27;;;;;;;1.55;0.52;;;17.00;1.00;;;;;;5010686;28;20270;-71
2021/12/29 10:02:56;;;;;;;5.45;1.55;;;16.80;1.00;;;;;;5010185;28;20266;-73
2021/12/29 10:05:26;;;;;;;4.38;1.75;;;16.70;1.00;;;;;;5015291;28;20261;-72
2021/12/29 10:08:05;;;;;;;4.70;0.65;;;16.60;1.00;;;;;;5026634;28;20285;-71
2021/12/29 10:10:34;;;;;;;5.05;1.25;;;16.80;99.90;;;;;;5027626;28;20735;-71
2021/12/29 10:13:03;;;;;;;1.98;0.80;;;16.90;1.00;;;;;;5016974;28;20208;-71
2021/12/29 10:15:34;;;;;;;2.95;1.50;;;16.90;1.00;;;;;;5016543;28;20717;-72
2021/12/29 10:18:06;;;;;;;2.05;0.50;;;16.80;1.00;;;;;;5016553;28;20203;-72
2021/12/29 10:20:33;;;;;;;2.80;0.70;;;16.80;1.00;;;;;;5028927;28;20263;-71
2021/12/29 10:23:01;;;;;;;1.55;0.85;;;16.80;1.00;;;;;;5029801;28;20277;-71
2021/12/29 10:25:33;;;;;;;1.30;0.77;;;16.80;1.00;;;;;;5025062;28;20203;-70
2021/12/29 10:28:06;;;;;;;1.60;0.73;;;16.70;1.00;;;;;;5024229;28;20628;-71
2021/12/29 10:30:33;;;;;;;2.15;0.60;;;16.60;1.00;;;;;;5022270;28;20222;-71
2021/12/29 10:33:13;;;;;;;2.35;0.80;;;16.80;1.00;;;;;;5030284;28;20265;-72
2021/12/29 10:35:41;;;;;;;1.17;0.80;;;16.80;1.00;;;;;;5027391;28;20308;-72
2021/12/29 10:38:14;;;;;;;0.95;0.60;;;16.70;1.00;;;;;;5025278;28;20733;-72
2021/12/29 10:40:43;;;;;;;1.63;0.60;;;16.20;1.00;;;;;;5024116;28;20212;-72
2021/12/29 10:43:13;;;;;;;2.47;0.47;;;16.00;1.00;;;;;;5020974;28;20338;-72
2021/12/29 10:45:43;;;;;;;1.05;0.55;;;15.70;1.00;;;;;;5025921;28;20629;-73
2021/12/29 10:48:21;;;;;;;4.88;0.80;;;15.40;1.00;;;;;;5027663;28;20290;-72
2021/12/29 10:51:00;;;;;;;4.80;0.77;;;15.30;1.00;;;;;;5019022;28;20208;-73
2021/12/29 10:53:28;;;;;;;3.60;0.75;;;15.30;1.00;;;;;;5031343;28;20211;-73
2021/12/29 10:55:55;;;;;;;0.57;0.38;;;15.40;1.00;;;;;;5034117;28;20203;-72
2021/12/29 10:58:27;;;;;;;2.78;0.98;;;15.40;1.00;;;;;;5033990;28;20203;-72
2021/12/29 11:01:01;;;;;;;1.98;0.80;;;15.70;1.00;;;;;;5031775;28;20361;-74
2021/12/29 11:03:29;;;;;;;15.38;7.30;;;15.70;1.00;;;;;;5013653;28;20281;-72
2021/12/29 11:05:59;;;;;;;4.50;1.80;;;15.80;1.00;;;;;;5014294;28;20208;-72
2021/12/29 11:08:27;;;;;;;2.63;0.90;;;16.00;1.00;;;;;;5013858;28;20659;-73
2021/12/29 11:10:56;;;;;;;2.45;2.00;;;16.20;1.00;;;;;;5014455;28;20208;-73
2021/12/29 11:13:29;;;;;;;2.05;0.80;;;16.30;1.00;;;;;;5026182;28;20623;-73
2021/12/29 11:15:57;;;;;;;2.60;0.80;;;16.50;1.00;;;;;;5029981;28;20622;-71
2021/12/29 11:18:25;;;;;;;2.17;0.60;;;16.20;1.00;;;;;;5031683;28;20290;-71
2021/12/29 11:20:58;;;;;;;3.70;0.70;;;16.10;1.00;;;;;;5027301;28;20556;-70
2021/12/29 11:23:25;;;;;;;4.60;0.90;;;16.00;1.00;;;;;;5024369;28;20227;-70
2021/12/29 11:25:53;;;;;;;4.13;0.90;;;16.00;1.00;;;;;;5018313;28;20258;-71
2021/12/29 11:28:22;;;;;;;1.52;1.27;;;16.00;1.00;;;;;;5013817;28;20646;-70
2021/12/29 11:30:51;;;;;;;1.33;0.70;;;16.00;1.00;;;;;;5013917;28;20294;-70
2021/12/29 11:33:19;;;;;;;3.30;0.73;;;16.00;1.00;;;;;;5011275;28;20208;-72
2021/12/29 11:35:50;;;;;;;4.10;0.80;;;15.90;1.00;;;;;;4996702;28;20275;-71
2021/12/29 11:38:19;;;;;;;2.20;0.82;;;15.80;1.00;;;;;;5012633;28;20200;-72
2021/12/29 11:40:50;;;;;;;1.30;1.10;;;15.90;1.00;;;;;;5028586;28;20258;-71
2021/12/29 11:43:19;;;;;;;5.97;1.90;;;15.80;1.00;;;;;;5014945;28;20240;-71
2021/12/29 11:45:48;;;;;;;12.20;3.88;;;15.90;1.00;;;;;;5028121;28;20579;-70
2021/12/29 11:48:20;;;;;;;9.35;3.90;;;15.90;1.00;;;;;;5011602;28;20299;-73
2021/12/29 11:50:49;;;;;;;6.18;1.83;;;15.90;1.00;;;;;;5026615;28;20670;-71
2021/12/29 11:53:30;;;;;;;8.63;3.65;;;15.90;1.00;;;;;;5032929;28;20212;-71
2021/12/29 11:56:00;;;;;;;1.20;0.68;;;15.90;1.00;;;;;;5017768;28;20750;-71
2021/12/29 11:58:29;;;;;;;5.35;0.90;;;16.00;1.00;;;;;;5028981;28;20214;-70
2021/12/29 12:01:06;;;;;;;6.82;1.52;;;16.10;1.00;;;;;;5016906;28;20270;-72
2021/12/29 12:03:48;;;;;;;2.13;0.88;;;16.20;1.00;;;;;;5012040;28;20313;-71
2021/12/29 12:06:28;;;;;;;0.63;0.63;;;16.40;1.00;;;;;;5015018;28;20619;-71
2021/12/29 12:09:11;;;;;;;2.55;0.60;;;16.50;1.00;;;;;;5013148;28;20237;-71
2021/12/29 12:11:42;;;;;;;2.50;1.00;;;16.60;1.00;;;;;;5011570;28;20200;-71
2021/12/29 12:14:19;;;;;;;3.15;1.13;;;16.70;1.00;;;;;;5009549;28;20683;-71
2021/12/29 12:16:55;;;;;;;2.10;0.60;;;16.70;1.00;;;;;;5012947;28;20262;-70
2021/12/29 12:19:26;;;;;;;2.08;1.20;;;16.70;1.00;;;;;;5012645;28;20207;-70
2021/12/29 12:22:06;;;;;;;0.60;0.60;;;16.60;1.00;;;;;;5012951;28;20624;-71
2021/12/29 12:24:34;;;;;;;5.07;0.70;;;16.70;1.00;;;;;;5012460;28;20645;-73
2021/12/29 12:27:03;;;;;;;1.17;0.60;;;16.80;1.00;;;;;;5012538;28;20263;-70
2021/12/29 12:29:32;;;;;;;2.38;0.80;;;17.00;1.00;;;;;;5012391;28;20212;-70
2021/12/29 12:32:02;;;;;;;2.35;0.70;;;17.20;1.00;;;;;;5012941;28;20204;-72
2021/12/29 12:34:32;;;;;;;2.63;0.60;;;17.30;1.00;;;;;;5011528;28;20208;-71
2021/12/29 12:37:01;;;;;;;1.10;0.85;;;17.20;1.00;;;;;;5012758;28;20204;-71
2021/12/29 12:39:29;;;;;;;0.95;0.63;;;17.30;1.00;;;;;;5011988;28;20667;-73
2021/12/29 12:41:58;;;;;;;0.88;0.60;;;17.30;1.00;;;;;;5012218;28;20236;-71
2021/12/29 12:44:34;;;;;;;1.88;0.70;;;17.20;1.00;;;;;;5011837;28;20212;-70
2021/12/29 12:47:11;;;;;;;0.88;0.50;;;17.10;1.00;;;;;;5012438;28;20204;-71
2021/12/29 12:49:47;;;;;;;0.43;0.40;;;16.90;1.00;;;;;;5012032;28;20737;-71
2021/12/29 12:52:15;;;;;;;1.52;0.45;;;16.80;1.00;;;;;;5012008;28;20234;-70
2021/12/29 12:54:49;;;;;;;0.95;0.47;;;16.80;1.00;;;;;;5012304;28;20208;-70
2021/12/29 12:57:30;;;;;;;1.70;0.50;;;16.90;1.00;;;;;;5012319;28;20204;-71
2021/12/29 13:00:12;;;;;;;1.00;0.70;;;16.90;1.00;;;;;;5011999;28;20250;-72
2021/12/29 13:02:42;;;;;;;1.45;0.75;;;17.00;1.00;;;;;;5011606;28;20659;-71
2021/12/29 13:05:14;;;;;;;1.92;0.70;;;16.90;1.00;;;;;;5011941;28;20208;-70
2021/12/29 13:07:43;;;;;;;0.43;0.43;;;16.80;1.00;;;;;;5012040;28;20208;-70
2021/12/29 13:10:13;;;;;;;1.73;0.70;;;16.90;1.00;;;;;;5012234;28;20306;-70